Time;durP1;ratioP1;P1;durP2;ratioP2;P2;SDS_P1;SDS_P2;PMS_P1;PMS_P2;Temp;Humidity;BMP_temperature;BMP_pressure;BME280_temperature;BME280_humidity;BME280_pressure;Samples;Min_cycle;Max_cycle;Signal;HPM_P1;HPM_P2
2023/01/06 00:01:54;;;;;;;0.68;0.68;;;3.50;99.90;;;;;;5000806;28;20019;-73
2023/01/06 00:04:20;;;;;;;0.52;0.52;;;;;;;;;;5001764;28;20318;-73
2023/01/06 00:06:46;;;;;;;0.47;0.47;;;3.40;99.90;;;;;;4997866;28;20077;-73
2023/01/06 00:09:12;;;;;;;0.55;0.55;;;3.40;99.90;;;;;;5017137;28;20026;-72
2023/01/06 00:11:37;;;;;;;2.35;0.45;;;3.20;99.90;;;;;;5001264;28;20271;-73
2023/01/06 00:14:03;;;;;;;0.40;0.40;;;3.40;99.90;;;;;;4986934;28;20034;-73
2023/01/06 00:16:29;;;;;;;1.27;0.70;;;3.30;99.90;;;;;;4984647;28;20228;-73
2023/01/06 00:18:57;;;;;;;0.40;0.40;;;;;;;;;;4987858;28;20033;-75
2023/01/06 00:21:23;;;;;;;0.50;0.50;;;3.30;99.90;;;;;;5011487;28;20278;-73
2023/01/06 00:23:49;;;;;;;0.75;0.60;;;;;;;;;;4985660;28;20054;-74
2023/01/06 00:26:15;;;;;;;0.77;0.73;;;3.40;99.90;;;;;;4996699;28;20030;-72
2023/01/06 00:28:41;;;;;;;0.40;0.40;;;3.60;99.90;;;;;;4992088;28;20018;-73
2023/01/06 00:31:09;;;;;;;0.22;0.22;;;3.60;99.90;;;;;;4985822;28;20023;-73
2023/01/06 00:33:35;;;;;;;2.30;1.30;;;3.50;99.90;;;;;;4983667;28;20021;-72
2023/01/06 00:36:01;;;;;;;0.52;0.40;;;;;;;;;;4984692;28;20054;-73
2023/01/06 00:38:27;;;;;;;1.98;0.40;;;3.50;99.90;;;;;;4998021;28;20034;-72
2023/01/06 00:40:53;;;;;;;2.13;0.60;;;3.70;99.90;;;;;;4998957;28;20338;-72
2023/01/06 00:43:18;;;;;;;7.80;0.98;;;3.80;99.90;;;;;;5000564;28;20479;-75
2023/01/06 00:45:44;;;;;;;0.93;0.40;;;3.80;99.90;;;;;;4995948;28;20030;-76
2023/01/06 00:48:09;;;;;;;0.30;0.30;;;3.70;99.90;;;;;;4997189;28;20026;-72
2023/01/06 00:50:35;;;;;;;0.63;0.60;;;;;;;;;;4991498;28;20222;-73
2023/01/06 00:53:01;;;;;;;0.68;0.38;;;;;;;;;;4998936;28;20026;-73
2023/01/06 00:55:28;;;;;;;0.50;0.50;;;3.80;99.90;;;;;;4992603;28;20333;-76
2023/01/06 00:57:55;;;;;;;0.38;0.38;;;;;;;;;;4982905;28;20058;-74
2023/01/06 01:00:21;;;;;;;0.60;0.60;;;;;;;;;;4997638;28;20299;-77
2023/01/06 01:02:47;;;;;;;0.35;0.35;;;3.50;99.90;;;;;;4995404;28;20050;-75
2023/01/06 01:05:13;;;;;;;0.50;0.38;;;3.50;99.90;;;;;;4999090;28;20038;-75
2023/01/06 01:07:42;;;;;;;0.38;0.38;;;;;;;;;;4990428;28;20131;-75
2023/01/06 01:10:08;;;;;;;0.22;0.20;;;1.90;99.90;;;;;;4993030;28;20082;-75
2023/01/06 01:12:34;;;;;;;3.83;0.40;;;;;;;;;;4985572;28;20027;-74
2023/01/06 01:15:00;;;;;;;2.28;0.50;;;;;;;;;;4986786;28;20019;-74
2023/01/06 01:17:31;;;;;;;0.50;0.50;;;3.20;99.90;;;;;;5008015;28;20105;-75
2023/01/06 01:19:58;;;;;;;0.30;0.30;;;3.10;99.90;;;;;;4993162;28;20030;-76
2023/01/06 01:22:25;;;;;;;0.30;0.30;;;;;;;;;;4993104;28;20031;-75
2023/01/06 01:24:51;;;;;;;0.45;0.35;;;;;;;;;;4986631;28;20061;-74
2023/01/06 01:27:17;;;;;;;0.52;0.45;;;;;;;;;;4988270;28;20055;-75
2023/01/06 01:29:44;;;;;;;0.35;0.35;;;;;;;;;;4989925;28;20022;-75
2023/01/06 01:32:09;;;;;;;2.03;0.40;;;3.40;99.90;;;;;;4985322;28;20057;-77
2023/01/06 01:34:36;;;;;;;0.95;0.63;;;;;;;;;;4984447;28;20111;-75
2023/01/06 01:37:02;;;;;;;0.70;0.47;;;;;;;;;;4986830;28;20097;-75
2023/01/06 01:39:29;;;;;;;0.30;0.30;;;3.60;99.90;;;;;;5011488;28;20122;-75
2023/01/06 01:41:56;;;;;;;2.15;0.60;;;4.00;99.90;;;;;;4991770;28;20317;-74
2023/01/06 01:44:55;;;;;;;3.90;1.60;;;4.10;99.90;;;;;;4992324;28;20086;-74
2023/01/06 01:47:26;;;;;;;2.25;1.42;;;4.50;99.90;;;;;;4997731;28;20113;-74
2023/01/06 01:49:57;;;;;;;1.15;1.15;;;4.60;99.90;;;;;;4997338;28;20033;-74
2023/01/06 01:52:24;;;;;;;2.95;1.60;;;5.10;99.90;;;;;;4998416;28;20041;-73
2023/01/06 01:54:51;;;;;;;2.20;1.52;;;5.60;99.90;;;;;;4998594;28;20335;-74
2023/01/06 01:57:36;;;;;;;2.75;1.90;;;6.40;99.90;;;;;;4998550;28;20034;-74
2023/01/06 02:00:05;;;;;;;2.22;1.40;;;6.50;99.90;;;;;;4999470;28;20029;-73
2023/01/06 02:02:31;;;;;;;2.10;1.95;;;6.70;99.90;;;;;;4999742;28;20033;-75
2023/01/06 02:04:59;;;;;;;2.33;1.55;;;6.70;99.90;;;;;;5000103;28;20166;-74
2023/01/06 02:07:26;;;;;;;2.50;1.70;;;6.80;99.90;;;;;;4999514;28;20207;-74
2023/01/06 02:10:12;;;;;;;3.25;1.80;;;6.90;99.90;;;;;;5003110;28;20033;-73
2023/01/06 02:12:39;;;;;;;2.72;2.33;;;7.10;99.90;;;;;;5002753;28;20086;-75
2023/01/06 02:15:25;;;;;;;4.97;2.45;;;7.00;99.90;;;;;;5002231;28;20352;-74
2023/01/06 02:18:11;;;;;;;3.85;2.55;;;7.70;99.90;;;;;;5001535;28;20040;-74
2023/01/06 02:20:50;;;;;;;3.13;2.08;;;7.50;99.90;;;;;;4995026;28;20057;-74
2023/01/06 02:23:22;;;;;;;;;;;7.30;99.90;;;;;;5002093;28;20038;-74
2023/01/06 02:26:07;;;;;;;1.42;1.13;;;7.40;99.90;;;;;;4964740;28;19914;-74
2023/01/06 02:29:03;;;;;;;1.20;1.10;;;7.40;99.90;;;;;;4963608;28;20030;-74
2023/01/06 02:31:50;;;;;;;4.13;1.65;;;7.50;99.90;;;;;;4995586;28;20033;-73
2023/01/06 02:34:46;;;;;;;1.77;1.42;;;7.40;99.90;;;;;;4963542;28;20019;-73
2023/01/06 02:37:24;;;;;;;1.35;0.93;;;7.40;99.90;;;;;;4964299;28;20031;-73
2023/01/06 02:40:15;;;;;;;1.75;1.20;;;7.70;99.90;;;;;;4995520;28;20414;-73
2023/01/06 02:42:53;;;;;;;5.05;1.73;;;7.60;99.90;;;;;;4963461;28;20094;-74
2023/01/06 02:45:42;;;;;;;1.45;0.95;;;7.50;99.90;;;;;;4995289;28;20036;-74
2023/01/06 02:48:24;;;;;;;1.85;1.15;;;7.50;99.90;;;;;;4994873;28;20030;-74
2023/01/06 02:51:25;;;;;;;2.45;1.90;;;7.50;99.90;;;;;;4964622;28;20477;-73
2023/01/06 02:54:31;;;;;;;1.40;1.30;;;7.50;99.90;;;;;;4961844;29;20039;-74
2023/01/06 02:57:26;;;;;;;2.10;0.85;;;7.50;99.90;;;;;;4963726;28;20355;-75
2023/01/06 03:00:02;;;;;;;1.48;0.82;;;7.50;99.90;;;;;;4944560;28;20212;-74
2023/01/06 03:02:31;;;;;;;0.80;0.80;;;7.70;99.90;;;;;;4963197;28;20035;-75
2023/01/06 03:05:00;;;;;;;2.63;1.57;;;7.70;99.90;;;;;;4962450;29;20051;-74
2023/01/06 03:07:27;;;;;;;1.17;1.10;;;7.60;99.90;;;;;;4962228;28;20019;-74
2023/01/06 03:09:54;;;;;;;1.50;1.40;;;;;;;;;;4961858;28;20215;-74
2023/01/06 03:12:32;;;;;;;1.00;0.90;;;;;;;;;;4961478;28;20051;-73
2023/01/06 03:14:58;;;;;;;1.50;0.80;;;;;;;;;;4961339;28;20019;-74
2023/01/06 03:17:24;;;;;;;1.80;1.42;;;7.50;99.90;;;;;;4961986;28;20301;-74
2023/01/06 03:19:51;;;;;;;0.85;0.85;;;7.50;99.90;;;;;;4962040;28;20012;-74
2023/01/06 03:22:17;;;;;;;0.77;0.73;;;;;;;;;;4962837;29;20024;-74
2023/01/06 03:24:46;;;;;;;0.93;0.82;;;;;;;;;;4974291;28;20043;-74
2023/01/06 03:27:12;;;;;;;0.90;0.70;;;7.60;99.90;;;;;;4982215;28;20338;-74
2023/01/06 03:29:38;;;;;;;1.90;1.42;;;;;;;;;;4982381;28;20077;-74
2023/01/06 03:32:45;;;;;;;1.30;1.20;;;7.80;99.90;;;;;;4996923;28;20311;-74
2023/01/06 03:35:40;;;;;;;3.03;1.58;;;7.70;99.90;;;;;;4975871;28;20038;-73
2023/01/06 03:38:29;;;;;;;1.33;0.98;;;7.70;99.90;;;;;;4977383;28;20354;-75
2023/01/06 03:41:07;;;;;;;0.60;0.60;;;7.80;99.90;;;;;;4980918;28;20042;-73
2023/01/06 03:43:51;;;;;;;0.80;0.80;;;7.80;99.90;;;;;;4980642;28;20050;-75
2023/01/06 03:46:33;;;;;;;0.47;0.47;;;;;;;;;;4980852;28;20090;-74
2023/01/06 03:49:07;;;;;;;0.77;0.77;;;7.80;99.90;;;;;;4981780;28;20031;-74
2023/01/06 03:51:53;;;;;;;1.13;0.65;;;7.90;99.90;;;;;;4982245;28;20077;-74
2023/01/06 03:54:53;;;;;;;1.70;0.98;;;7.90;99.90;;;;;;4981580;28;20049;-75
2023/01/06 03:57:31;;;;;;;;;;;8.00;99.90;;;;;;4980786;28;20049;-75
2023/01/06 04:00:04;;;;;;;1.00;0.82;;;8.00;99.90;;;;;;4981977;28;19909;-73
2023/01/06 04:02:30;;;;;;;0.70;0.70;;;7.90;99.90;;;;;;4981594;28;20050;-74
2023/01/06 04:05:13;;;;;;;0.55;0.55;;;8.00;99.90;;;;;;4981579;28;20090;-74
2023/01/06 04:07:41;;;;;;;0.30;0.30;;;8.10;99.90;;;;;;4981557;28;20030;-74
2023/01/06 04:10:07;;;;;;;0.40;0.40;;;;;;;;;;4982425;28;20023;-75
2023/01/06 04:12:39;;;;;;;0.35;0.35;;;;;;;;;;4981216;28;20059;-73
2023/01/06 04:15:08;;;;;;;1.10;0.70;;;8.00;99.90;;;;;;4981316;28;20030;-75
2023/01/06 04:17:34;;;;;;;0.40;0.40;;;8.20;99.90;;;;;;4981770;28;20381;-73
2023/01/06 04:20:00;;;;;;;0.30;0.30;;;8.20;99.90;;;;;;4981459;28;20053;-75
2023/01/06 04:22:26;;;;;;;0.30;0.30;;;8.10;99.90;;;;;;4981303;28;20027;-73
2023/01/06 04:24:51;;;;;;;1.75;0.50;;;8.00;99.90;;;;;;4993454;28;20356;-74
2023/01/06 04:27:17;;;;;;;0.60;0.60;;;;;;;;;;5001050;28;20018;-74
2023/01/06 04:29:43;;;;;;;0.60;0.47;;;;;;;;;;5000599;28;20029;-75
2023/01/06 04:32:09;;;;;;;0.80;0.50;;;7.80;99.90;;;;;;5000550;28;20019;-74
2023/01/06 04:34:34;;;;;;;0.52;0.40;;;8.00;99.90;;;;;;5000458;28;20048;-74
2023/01/06 04:37:00;;;;;;;0.28;0.28;;;;;;;;;;5000196;28;20073;-74
2023/01/06 04:39:27;;;;;;;0.93;0.40;;;;;;;;;;5000805;28;20026;-73
2023/01/06 04:41:52;;;;;;;0.45;0.30;;;8.00;99.90;;;;;;5000251;28;20054;-73
2023/01/06 04:44:18;;;;;;;0.88;0.40;;;8.00;99.90;;;;;;5000776;28;20021;-73
2023/01/06 04:46:44;;;;;;;0.20;0.20;;;;;;;;;;5015232;28;20034;-73
2023/01/06 04:49:10;;;;;;;0.40;0.40;;;;;;;;;;5000209;28;20026;-74
2023/01/06 04:51:35;;;;;;;1.23;0.70;;;7.90;99.90;;;;;;4993778;28;20538;-74
2023/01/06 04:54:01;;;;;;;0.75;0.75;;;7.80;99.90;;;;;;4997950;28;20072;-74
2023/01/06 04:56:27;;;;;;;0.30;0.30;;;7.60;99.90;;;;;;5000975;28;20065;-74
2023/01/06 04:58:54;;;;;;;0.20;0.20;;;7.60;99.90;;;;;;4998952;28;20072;-75
2023/01/06 05:01:20;;;;;;;0.20;0.20;;;7.60;99.90;;;;;;5000704;28;20057;-73
2023/01/06 05:03:46;;;;;;;0.98;0.50;;;7.50;99.90;;;;;;5000363;28;20030;-74
2023/01/06 05:06:12;;;;;;;0.43;0.28;;;7.40;99.90;;;;;;5000272;28;20432;-74
2023/01/06 05:08:40;;;;;;;0.73;0.73;;;7.60;99.90;;;;;;5000092;28;20026;-74
2023/01/06 05:11:08;;;;;;;0.20;0.20;;;7.60;99.90;;;;;;5000465;28;20018;-74
2023/01/06 05:13:34;;;;;;;0.20;0.20;;;7.60;99.90;;;;;;5000328;28;20306;-74
2023/01/06 05:16:00;;;;;;;0.68;0.22;;;7.60;99.90;;;;;;4998279;28;20037;-74
2023/01/06 05:18:25;;;;;;;0.32;0.30;;;7.50;99.90;;;;;;4979186;28;20254;-74
2023/01/06 05:20:54;;;;;;;0.88;0.30;;;7.60;99.90;;;;;;4980386;28;20077;-74
2023/01/06 05:23:20;;;;;;;0.33;0.33;;;7.50;99.90;;;;;;4980152;28;20022;-74
2023/01/06 05:25:48;;;;;;;0.20;0.20;;;7.60;99.90;;;;;;4981243;28;20574;-75
2023/01/06 05:28:14;;;;;;;1.08;0.20;;;7.50;99.90;;;;;;4980415;28;20037;-75
2023/01/06 05:30:40;;;;;;;0.57;0.30;;;7.50;99.90;;;;;;4980512;28;20050;-74
2023/01/06 05:33:06;;;;;;;0.30;0.30;;;;;;;;;;4980357;28;20023;-73
2023/01/06 05:35:32;;;;;;;0.10;0.10;;;7.60;99.90;;;;;;4995712;28;20030;-74
2023/01/06 05:37:57;;;;;;;1.45;0.43;;;8.10;99.90;;;;;;4980032;28;20031;-74
2023/01/06 05:40:23;;;;;;;0.10;0.10;;;;;;;;;;4980617;28;20082;-74
2023/01/06 05:42:56;;;;;;;0.13;0.13;;;8.40;99.90;;;;;;4995746;28;20255;-74
2023/01/06 05:45:23;;;;;;;0.10;0.10;;;8.40;99.90;;;;;;4984301;28;20022;-74
2023/01/06 05:47:48;;;;;;;0.17;0.10;;;8.40;99.90;;;;;;4983986;28;20084;-73
2023/01/06 05:50:14;;;;;;;0.28;0.28;;;8.40;99.90;;;;;;4984380;28;20026;-74
2023/01/06 05:52:40;;;;;;;0.40;0.40;;;8.30;99.90;;;;;;4982882;28;20102;-73
2023/01/06 05:55:06;;;;;;;0.10;0.10;;;8.40;99.90;;;;;;4984527;28;20018;-74
2023/01/06 05:57:33;;;;;;;0.30;0.30;;;8.50;99.90;;;;;;4998880;28;20325;-74
2023/01/06 05:59:58;;;;;;;0.32;0.20;;;8.40;99.90;;;;;;4996959;28;20026;-73
2023/01/06 06:02:24;;;;;;;0.20;0.20;;;8.50;99.90;;;;;;5003263;28;20137;-74
2023/01/06 06:04:50;;;;;;;0.20;0.20;;;;;;;;;;5003334;28;20077;-74
2023/01/06 06:07:16;;;;;;;0.30;0.30;;;8.30;99.90;;;;;;5003681;28;20037;-74
2023/01/06 06:09:42;;;;;;;0.20;0.20;;;;;;;;;;5003471;28;20022;-73
2023/01/06 06:12:08;;;;;;;0.20;0.20;;;;;;;;;;5003529;28;20105;-74
2023/01/06 06:14:34;;;;;;;0.20;0.20;;;;;;;;;;5002623;28;20325;-73
2023/01/06 06:17:00;;;;;;;0.30;0.30;;;;;;;;;;5002724;28;20041;-74
2023/01/06 06:19:26;;;;;;;0.75;0.30;;;;;;;;;;5002917;28;20041;-74
2023/01/06 06:21:52;;;;;;;0.20;0.20;;;8.40;99.90;;;;;;5003361;28;20022;-73
2023/01/06 06:24:18;;;;;;;0.17;0.17;;;8.10;99.90;;;;;;5002765;28;20246;-74
2023/01/06 06:26:43;;;;;;;0.38;0.30;;;8.20;99.90;;;;;;5003098;28;20031;-74
2023/01/06 06:29:09;;;;;;;0.43;0.20;;;8.20;99.90;;;;;;5002904;28;20294;-74
2023/01/06 06:31:35;;;;;;;0.30;0.30;;;8.20;99.90;;;;;;5003281;28;20038;-75
2023/01/06 06:34:02;;;;;;;0.15;0.15;;;8.20;99.90;;;;;;5002032;28;20023;-75
2023/01/06 06:36:29;;;;;;;0.30;0.30;;;8.20;99.90;;;;;;5003079;28;20029;-73
2023/01/06 06:38:54;;;;;;;0.10;0.10;;;8.20;99.90;;;;;;5003265;28;20036;-74
2023/01/06 06:41:21;;;;;;;0.32;0.20;;;;;;;;;;5003125;28;20046;-75
2023/01/06 06:43:48;;;;;;;0.20;0.20;;;8.20;99.90;;;;;;5002303;28;20053;-75
2023/01/06 06:46:14;;;;;;;2.38;0.20;;;8.20;99.90;;;;;;5002375;28;20097;-75
2023/01/06 06:48:40;;;;;;;0.10;0.10;;;;;;;;;;4997708;28;20023;-75
2023/01/06 06:51:12;;;;;;;0.20;0.20;;;8.20;99.90;;;;;;4998101;28;20037;-72
2023/01/06 06:53:38;;;;;;;5.10;0.35;;;8.30;99.90;;;;;;5000055;28;20018;-75
2023/01/06 06:56:05;;;;;;;0.10;0.10;;;8.30;99.90;;;;;;4999744;28;20034;-73
2023/01/06 06:58:31;;;;;;;0.10;0.10;;;8.40;99.90;;;;;;5000076;28;20030;-75
2023/01/06 07:00:57;;;;;;;0.00;0.00;;;;;;;;;;4999002;28;20259;-76
2023/01/06 07:03:24;;;;;;;0.20;0.20;;;8.30;99.90;;;;;;4997819;28;20318;-75
2023/01/06 07:05:51;;;;;;;0.10;0.10;;;8.30;99.90;;;;;;4994356;28;20027;-76
2023/01/06 07:08:17;;;;;;;0.20;0.20;;;;;;;;;;4978908;28;20023;-74
2023/01/06 07:10:43;;;;;;;0.30;0.25;;;;;;;;;;4979490;28;20030;-74
2023/01/06 07:13:09;;;;;;;0.10;0.10;;;8.20;99.90;;;;;;4980424;28;20378;-75
2023/01/06 07:15:35;;;;;;;0.10;0.10;;;;;;;;;;4980059;28;20026;-75
2023/01/06 07:18:02;;;;;;;0.15;0.15;;;8.20;99.90;;;;;;4978486;28;20219;-76
2023/01/06 07:20:29;;;;;;;0.50;0.50;;;;;;;;;;4979308;28;20031;-76
2023/01/06 07:22:55;;;;;;;0.20;0.20;;;8.40;99.90;;;;;;4979621;28;20035;-76
2023/01/06 07:25:21;;;;;;;0.00;0.00;;;;;;;;;;4979719;28;20358;-74
2023/01/06 07:27:47;;;;;;;0.20;0.20;;;;;;;;;;4980049;28;20327;-75
2023/01/06 07:30:13;;;;;;;0.30;0.30;;;8.40;99.90;;;;;;4978304;28;20041;-74
2023/01/06 07:32:39;;;;;;;0.10;0.10;;;;;;;;;;4979546;28;20027;-75
2023/01/06 07:35:05;;;;;;;0.08;0.08;;;;;;;;;;4978993;28;20026;-74
2023/01/06 07:37:31;;;;;;;0.10;0.10;;;8.40;99.90;;;;;;4978635;28;20039;-75
2023/01/06 07:39:57;;;;;;;0.10;0.10;;;8.40;99.90;;;;;;4978993;28;20082;-73
2023/01/06 07:42:23;;;;;;;0.10;0.10;;;;;;;;;;4980682;28;20030;-74
2023/01/06 07:44:49;;;;;;;1.08;0.10;;;8.60;99.90;;;;;;4980354;28;20196;-74
2023/01/06 07:47:15;;;;;;;0.10;0.00;;;8.50;99.90;;;;;;4981327;28;20085;-73
2023/01/06 07:49:40;;;;;;;0.00;0.00;;;8.50;99.90;;;;;;4980378;28;20033;-73
2023/01/06 07:52:06;;;;;;;0.10;0.10;;;;;;;;;;4980023;28;20035;-75
2023/01/06 07:54:32;;;;;;;0.10;0.10;;;8.50;99.90;;;;;;4980375;28;20023;-73
2023/01/06 07:56:58;;;;;;;0.10;0.10;;;;;;;;;;4978996;28;20046;-73
2023/01/06 07:59:24;;;;;;;0.13;0.13;;;;;;;;;;4980311;28;20023;-74
2023/01/06 08:01:50;;;;;;;0.10;0.10;;;8.60;99.90;;;;;;4980638;28;20090;-73
2023/01/06 08:04:15;;;;;;;0.10;0.10;;;8.50;99.90;;;;;;4980580;28;20346;-73
2023/01/06 08:06:41;;;;;;;0.10;0.10;;;8.50;99.90;;;;;;4979897;28;20037;-73
2023/01/06 08:09:07;;;;;;;0.50;0.20;;;;;;;;;;4980138;28;20031;-73
2023/01/06 08:11:33;;;;;;;0.10;0.10;;;8.40;99.90;;;;;;4980795;28;20022;-73
2023/01/06 08:13:59;;;;;;;0.20;0.20;;;8.50;99.90;;;;;;4981296;28;20251;-74
2023/01/06 08:16:24;;;;;;;0.10;0.10;;;8.50;99.90;;;;;;4981547;28;20042;-72
2023/01/06 08:18:50;;;;;;;0.10;0.10;;;8.50;99.90;;;;;;4981833;28;20211;-73
2023/01/06 08:21:16;;;;;;;0.75;0.52;;;8.40;99.90;;;;;;4979519;28;20106;-73
2023/01/06 08:23:42;;;;;;;0.20;0.20;;;8.70;99.90;;;;;;4981298;28;20328;-73
2023/01/06 08:26:12;;;;;;;0.13;0.13;;;8.80;99.90;;;;;;4980310;28;20018;-72
2023/01/06 08:28:38;;;;;;;0.10;0.10;;;;;;;;;;4990617;28;20023;-74
2023/01/06 08:31:04;;;;;;;0.10;0.10;;;;;;;;;;5000489;28;20041;-73
2023/01/06 08:33:30;;;;;;;0.28;0.20;;;9.10;99.90;;;;;;5000852;28;20090;-72
2023/01/06 08:35:59;;;;;;;0.10;0.10;;;;;;;;;;4999828;28;20326;-75
2023/01/06 08:38:25;;;;;;;;;;;9.10;99.90;;;;;;5000827;28;20068;-73
2023/01/06 08:40:52;;;;;;;0.20;0.10;;;9.30;99.90;;;;;;5000769;28;19902;-73
2023/01/06 08:43:18;;;;;;;0.10;0.10;;;9.50;99.90;;;;;;4999913;28;20073;-73
2023/01/06 08:45:44;;;;;;;0.10;0.10;;;9.60;99.90;;;;;;5000462;28;20022;-73
2023/01/06 08:48:09;;;;;;;0.25;0.25;;;9.80;99.90;;;;;;4998823;28;20074;-73
2023/01/06 08:50:38;;;;;;;0.10;0.10;;;10.00;99.90;;;;;;4996145;28;20310;-73
2023/01/06 08:53:04;;;;;;;0.45;0.10;;;10.10;99.90;;;;;;4991118;28;20033;-75
2023/01/06 08:55:30;;;;;;;0.10;0.10;;;;;;;;;;4989197;28;20085;-74
2023/01/06 08:57:56;;;;;;;2.85;0.15;;;;;;;;;;4988757;28;20577;-74
2023/01/06 09:00:22;;;;;;;0.10;0.10;;;;;;;;;;4988747;28;20028;-73
2023/01/06 09:02:48;;;;;;;0.10;0.10;;;10.40;99.90;;;;;;4989157;28;20105;-74
2023/01/06 09:05:14;;;;;;;0.57;0.10;;;10.40;99.90;;;;;;4989170;28;20113;-73
2023/01/06 09:07:39;;;;;;;0.20;0.20;;;9.90;99.90;;;;;;4989166;28;20030;-73
2023/01/06 09:10:06;;;;;;;0.10;0.10;;;10.10;99.90;;;;;;4990411;28;20440;-73
2023/01/06 09:12:32;;;;;;;0.10;0.10;;;;;;;;;;4990617;28;20027;-74
2023/01/06 09:14:58;;;;;;;0.17;0.15;;;;;;;;;;4990459;28;20046;-73
2023/01/06 09:17:24;;;;;;;0.85;0.35;;;;;;;;;;4990429;28;20082;-74
2023/01/06 09:19:50;;;;;;;0.10;0.10;;;;;;;;;;4993162;28;20026;-73
2023/01/06 09:22:16;;;;;;;0.28;0.28;;;10.10;99.90;;;;;;4993059;28;20416;-74
2023/01/06 09:24:42;;;;;;;0.30;0.17;;;10.10;99.90;;;;;;4994358;28;20084;-73
2023/01/06 09:27:07;;;;;;;0.10;0.10;;;9.90;99.90;;;;;;4993001;28;20121;-75
2023/01/06 09:29:33;;;;;;;0.10;0.10;;;9.80;99.90;;;;;;4993026;28;20022;-74
2023/01/06 09:32:02;;;;;;;0.20;0.20;;;;;;;;;;4994432;28;20030;-74
2023/01/06 09:34:27;;;;;;;0.17;0.10;;;9.50;99.90;;;;;;4992166;28;20029;-74
2023/01/06 09:36:53;;;;;;;0.15;0.15;;;9.70;99.90;;;;;;4993610;28;20022;-73
2023/01/06 09:39:19;;;;;;;0.10;0.10;;;9.50;99.90;;;;;;4993852;28;20036;-73
2023/01/06 09:42:21;;;;;;;0.30;0.22;;;9.50;99.90;;;;;;4993882;28;20044;-73
2023/01/06 09:45:02;;;;;;;0.43;0.43;;;9.50;99.90;;;;;;4993666;28;20107;-73
2023/01/06 09:47:33;;;;;;;2.17;0.75;;;9.60;99.90;;;;;;4993960;28;20026;-73
2023/01/06 09:50:11;;;;;;;0.13;0.13;;;9.70;99.90;;;;;;4994359;28;20419;-73
2023/01/06 09:52:42;;;;;;;0.10;0.10;;;9.80;99.90;;;;;;4993578;28;20422;-74
2023/01/06 09:55:26;;;;;;;0.10;0.10;;;9.90;99.90;;;;;;4994278;28;20023;-74
2023/01/06 09:58:10;;;;;;;0.00;0.00;;;10.10;99.90;;;;;;4992462;28;20577;-73
2023/01/06 10:00:36;;;;;;;0.10;0.10;;;;;;;;;;4993473;28;20034;-74
2023/01/06 10:03:03;;;;;;;0.30;0.30;;;;;;;;;;4992333;28;20034;-75
2023/01/06 10:06:00;;;;;;;0.10;0.10;;;10.60;99.90;;;;;;4993586;28;20026;-74
2023/01/06 10:08:47;;;;;;;0.00;0.00;;;10.70;99.90;;;;;;4993697;28;20023;-73
2023/01/06 10:11:25;;;;;;;0.25;0.20;;;11.20;99.90;;;;;;4992075;28;20046;-74
2023/01/06 10:14:06;;;;;;;0.28;0.28;;;10.90;99.90;;;;;;4993926;28;20019;-73
2023/01/06 10:16:54;;;;;;;0.20;0.20;;;11.20;99.90;;;;;;4990734;28;20484;-74
2023/01/06 10:19:53;;;;;;;0.25;0.10;;;11.40;99.90;;;;;;4992147;28;20344;-73
2023/01/06 10:22:41;;;;;;;0.08;0.08;;;11.50;99.90;;;;;;4993391;28;20077;-74
2023/01/06 10:25:19;;;;;;;0.10;0.10;;;11.70;99.90;;;;;;4993288;28;20315;-74
2023/01/06 10:27:49;;;;;;;2.30;0.13;;;11.50;99.90;;;;;;4993282;28;20545;-74
2023/01/06 10:30:52;;;;;;;0.50;0.50;;;10.90;99.90;;;;;;4992873;28;20037;-75
2023/01/06 10:33:31;;;;;;;0.20;0.20;;;10.70;99.90;;;;;;4992434;28;20053;-74
2023/01/06 10:35:58;;;;;;;0.17;0.17;;;10.50;99.90;;;;;;5008004;28;20098;-75
2023/01/06 10:38:36;;;;;;;0.13;0.13;;;10.50;99.90;;;;;;4992951;28;20498;-75
2023/01/06 10:41:24;;;;;;;0.35;0.20;;;10.50;99.90;;;;;;5008233;28;20468;-74
2023/01/06 10:43:50;;;;;;;0.20;0.20;;;10.10;99.90;;;;;;4992993;28;20022;-74
2023/01/06 10:46:16;;;;;;;0.28;0.20;;;10.30;99.90;;;;;;4993061;28;20029;-74
2023/01/06 10:48:43;;;;;;;1.77;0.45;;;10.40;99.90;;;;;;4993012;28;20205;-75
2023/01/06 10:51:36;;;;;;;0.15;0.15;;;10.60;99.90;;;;;;4991685;28;20475;-73
2023/01/06 10:54:11;;;;;;;0.20;0.20;;;10.10;99.90;;;;;;4991568;28;20026;-74
2023/01/06 10:56:38;;;;;;;0.45;0.43;;;10.50;99.90;;;;;;4991328;28;20501;-75
2023/01/06 10:59:13;;;;;;;0.25;0.10;;;10.30;99.90;;;;;;4993045;28;20041;-73
2023/01/06 11:01:51;;;;;;;0.40;0.20;;;10.40;99.90;;;;;;4992578;28;20506;-73
2023/01/06 11:04:18;;;;;;;0.10;0.10;;;10.20;99.90;;;;;;4992668;28;20033;-73
2023/01/06 11:06:49;;;;;;;0.17;0.17;;;10.20;99.90;;;;;;4992577;28;20022;-73
2023/01/06 11:09:38;;;;;;;0.20;0.20;;;9.90;99.90;;;;;;4991382;28;20018;-74
2023/01/06 11:12:21;;;;;;;0.00;0.00;;;10.00;99.90;;;;;;4993053;28;20031;-75
2023/01/06 11:15:01;;;;;;;0.25;0.20;;;9.80;99.90;;;;;;4991201;28;20058;-74
2023/01/06 11:17:28;;;;;;;0.30;0.30;;;9.70;99.90;;;;;;4991076;28;20030;-75
2023/01/06 11:20:23;;;;;;;0.08;0.08;;;9.70;99.90;;;;;;4992547;28;20056;-74
2023/01/06 11:22:49;;;;;;;0.50;0.50;;;9.40;99.90;;;;;;5001233;28;20105;-75
2023/01/06 11:25:29;;;;;;;4.57;1.00;;;9.40;99.90;;;;;;4991576;28;20129;-74
2023/01/06 11:28:18;;;;;;;0.43;0.43;;;9.40;99.90;;;;;;4990816;28;20570;-74
2023/01/06 11:30:59;;;;;;;0.38;0.38;;;9.50;99.90;;;;;;4990099;28;20026;-73
2023/01/06 11:33:29;;;;;;;0.30;0.30;;;;;;;;;;4988924;28;20027;-75
2023/01/06 11:35:55;;;;;;;0.10;0.10;;;9.70;99.90;;;;;;4990324;28;20023;-73
2023/01/06 11:38:22;;;;;;;0.28;0.28;;;;;;;;;;4990270;28;20061;-75
2023/01/06 11:40:50;;;;;;;0.13;0.13;;;9.70;99.90;;;;;;4991913;28;20384;-74
2023/01/06 11:43:30;;;;;;;0.22;0.20;;;9.70;99.90;;;;;;5000622;28;20030;-73
2023/01/06 11:45:58;;;;;;;0.10;0.10;;;9.80;99.90;;;;;;5002203;28;20026;-74
2023/01/06 11:48:38;;;;;;;0.20;0.20;;;9.70;99.90;;;;;;5001059;28;20030;-74
2023/01/06 11:51:09;;;;;;;0.10;0.10;;;9.80;99.90;;;;;;4994505;28;20475;-73
2023/01/06 11:53:37;;;;;;;0.10;0.10;;;9.80;99.90;;;;;;4993846;28;20030;-74
2023/01/06 11:56:04;;;;;;;0.50;0.25;;;10.00;99.90;;;;;;5006350;28;20545;-74
2023/01/06 11:59:08;;;;;;;0.20;0.20;;;10.00;99.90;;;;;;4996209;28;20041;-75
2023/01/06 12:02:12;;;;;;;0.38;0.03;;;10.00;99.90;;;;;;4877524;29;20218;-74
2023/01/06 12:04:50;;;;;;;0.13;0.13;;;10.20;99.90;;;;;;4880694;29;20039;-74
2023/01/06 12:07:33;;;;;;;0.70;0.70;;;10.00;99.90;;;;;;4981595;28;20092;-74
2023/01/06 12:10:08;;;;;;;0.28;0.15;;;10.40;99.90;;;;;;5001502;28;20165;-73
2023/01/06 12:12:34;;;;;;;0.25;0.10;;;10.30;99.90;;;;;;5000242;28;20029;-74
2023/01/06 12:15:00;;;;;;;0.10;0.10;;;;;;;;;;5000602;28;20026;-73
2023/01/06 12:17:42;;;;;;;0.10;0.10;;;10.60;99.90;;;;;;5000308;28;20042;-74
2023/01/06 12:20:28;;;;;;;0.63;0.10;;;10.60;99.90;;;;;;4999666;28;20038;-73
2023/01/06 12:23:13;;;;;;;0.10;0.10;;;10.80;99.90;;;;;;4999964;28;20307;-73
2023/01/06 12:25:44;;;;;;;0.10;0.10;;;10.80;99.90;;;;;;5016255;28;20134;-73
2023/01/06 12:28:15;;;;;;;0.10;0.10;;;10.80;99.90;;;;;;4995990;28;20089;-75
2023/01/06 12:31:21;;;;;;;0.10;0.10;;;10.90;99.90;;;;;;4993731;28;20437;-74
2023/01/06 12:34:04;;;;;;;0.00;0.00;;;10.80;99.90;;;;;;5013369;28;20208;-74
2023/01/06 12:36:41;;;;;;;0.13;0.13;;;10.90;99.90;;;;;;4998951;28;20018;-74
2023/01/06 12:39:11;;;;;;;0.93;0.70;;;11.00;99.90;;;;;;4997415;28;20046;-74
2023/01/06 12:41:53;;;;;;;1.58;0.80;;;11.00;99.90;;;;;;4998345;28;20058;-74
2023/01/06 12:44:48;;;;;;;0.50;0.30;;;11.30;99.90;;;;;;4998178;28;20096;-74
2023/01/06 12:47:14;;;;;;;0.20;0.20;;;;;;;;;;4985823;28;20218;-72
2023/01/06 12:49:49;;;;;;;0.28;0.28;;;10.80;99.90;;;;;;4998377;28;20029;-73
2023/01/06 12:52:22;;;;;;;0.17;0.17;;;10.60;99.90;;;;;;4997867;28;20373;-73
2023/01/06 12:54:54;;;;;;;0.20;0.20;;;10.50;99.90;;;;;;4998730;28;20260;-73
2023/01/06 12:57:37;;;;;;;1.42;0.50;;;10.50;99.90;;;;;;4997933;28;20054;-76
2023/01/06 13:00:35;;;;;;;0.82;0.50;;;10.70;99.90;;;;;;4994950;28;20034;-76
2023/01/06 13:03:26;;;;;;;3.28;1.35;;;10.50;99.90;;;;;;4973863;28;20049;-75
2023/01/06 13:06:37;;;;;;;1.20;0.77;;;10.50;99.90;;;;;;4992580;28;20041;-74
2023/01/06 13:09:03;;;;;;;0.30;0.30;;;;;;;;;;4976358;28;20070;-75
2023/01/06 13:11:38;;;;;;;0.32;0.32;;;10.10;99.90;;;;;;4978605;28;20026;-75
2023/01/06 13:14:06;;;;;;;0.20;0.20;;;10.20;99.90;;;;;;4979492;28;20049;-74
2023/01/06 13:16:52;;;;;;;0.30;0.30;;;10.20;99.90;;;;;;5007739;28;20113;-74
2023/01/06 13:19:39;;;;;;;0.22;0.22;;;10.40;99.90;;;;;;4998499;28;20038;-76
2023/01/06 13:22:08;;;;;;;0.30;0.30;;;;;;;;;;4996674;28;20023;-74
2023/01/06 13:24:47;;;;;;;0.40;0.40;;;10.40;99.90;;;;;;5003703;28;20065;-75
2023/01/06 13:27:31;;;;;;;;;;;10.50;99.90;;;;;;5009272;28;20038;-75
2023/01/06 13:30:12;;;;;;;0.20;0.20;;;10.60;99.90;;;;;;4986764;28;20331;-76
2023/01/06 13:32:57;;;;;;;0.47;0.20;;;10.60;99.90;;;;;;4989081;28;20030;-76
2023/01/06 13:35:55;;;;;;;0.30;0.30;;;10.60;99.90;;;;;;4990146;28;20030;-76
2023/01/06 13:38:51;;;;;;;0.50;0.50;;;10.50;99.90;;;;;;4956776;28;20496;-75
2023/01/06 13:41:21;;;;;;;0.40;0.40;;;10.50;99.90;;;;;;4988558;28;20061;-74
2023/01/06 13:43:49;;;;;;;0.20;0.20;;;10.50;99.90;;;;;;4989673;28;20625;-73